Latest Weather Observations for Lord Howe Island Windy Point

IDN60801

Issued at 10:32 am EST Thursday 2 July 2015 (issued every 30 minutes, with the page automatically refreshed every 10 minutes)

About weather observations | Map of weather stations | Latest weather observations for NSW | Other Formats
Station Details ID: 200715 Name: LORD HOWE ISLAND WINDY POINT Lat: -31.54 Lon: 159.07 Height: 4.0 m
Data from the previous 72 hours. | See also: Recent months for locations in New South Wales
Date/Time
EST
Temp
°C
App
Temp
°C
Dew
Point
Rel
Hum
%
Delta-T
°C
Wind Press
QNH
hPa
Press
MSL
hPa
Rain
since 9 am
mm
Dir
 
Spd
km/h
Gust
km/h
Spd
kts
Gust
kts
02/10:30am - - - - - SW 24 26 13 14 - - -
02/10:00am - - - - - WSW 26 32 14 17 - - -
02/09:30am - - - - - SW 28 33 15 18 - - -
02/09:00am - - - - - SW 28 32 15 17 - - -
02/08:30am - - - - - SW 26 30 14 16 - - -
02/08:00am - - - - - SW 30 39 16 21 - - -
02/07:30am - - - - - SW 28 32 15 17 - - -
02/07:00am - - - - - SW 26 33 14 18 - - -
02/06:30am - - - - - SW 22 28 12 15 - - -
02/06:00am - - - - - S 11 24 6 13 - - -
02/05:30am - - - - - SSW 20 26 11 14 - - -
02/05:00am - - - - - SW 17 20 9 11 - - -
02/04:30am - - - - - SSW 22 26 12 14 - - -
02/04:00am - - - - - SW 26 43 14 23 - - -
02/03:30am - - - - - SW 19 22 10 12 - - -
02/03:00am - - - - - SW 17 20 9 11 - - -
02/02:30am - - - - - SSW 11 22 6 12 - - -
02/02:00am - - - - - CALM 0 0 0 0 - - -
02/01:30am - - - - - CALM 0 0 0 0 - - -
02/01:00am - - - - - CALM 0 0 0 0 - - -
02/12:30am - - - - - CALM 0 0 0 0 - - -
02/12:00am - - - - - NNE 6 7 3 4 - - -
 
Date/Time
EST
Temp
°C
App
Temp
°C
Dew
Point
Rel
Hum
%
Delta-T
°C
Wind Press
QNH
hPa
Press
MSL
hPa
Rain
since 9 am
mm
Dir
 
Spd
km/h
Gust
km/h
Spd
kts
Gust
kts
01/11:30pm - - - - - ENE 2 7 1 4 - - -
01/11:00pm - - - - - ESE 7 11 4 6 - - -
01/10:30pm - - - - - E 6 9 3 5 - - -
01/10:00pm - - - - - ESE 13 17 7 9 - - -
01/09:30pm - - - - - ESE 15 20 8 11 - - -
01/09:00pm - - - - - ESE 13 17 7 9 - - -
01/08:30pm - - - - - ESE 13 17 7 9 - - -
01/08:00pm - - - - - ESE 17 30 9 16 - - -
01/07:30pm - - - - - ESE 35 46 19 25 - - -
01/07:00pm - - - - - ESE 32 39 17 21 - - -
01/06:30pm - - - - - ESE 17 24 9 13 - - -
01/06:00pm - - - - - ESE 17 20 9 11 - - -
01/05:30pm - - - - - E 24 28 13 15 - - -
01/05:00pm - - - - - ESE 22 28 12 15 - - -
01/04:30pm - - - - - ESE 17 24 9 13 - - -
01/04:00pm - - - - - ENE 6 9 3 5 - - -
01/03:30pm - - - - - E 6 7 3 4 - - -
01/03:00pm - - - - - E 11 15 6 8 - - -
01/02:30pm - - - - - ENE 11 15 6 8 - - -
01/02:00pm - - - - - SSE 9 11 5 6 - - -
01/01:30pm - - - - - S 13 19 7 10 - - -
01/01:00pm - - - - - W 9 20 5 11 - - -
01/12:30pm - - - - - ESE 7 11 4 6 - - -
01/12:00pm - - - - - ENE 11 17 6 9 - - -
01/11:30am - - - - - E 15 24 8 13 - - -
01/11:00am - - - - - NE 11 20 6 11 - - -
01/10:30am - - - - - ENE 11 22 6 12 - - -
01/10:00am - - - - - NNE 7 15 4 8 - - -
01/09:30am - - - - - NNE 15 24 8 13 - - -
01/09:00am - - - - - NNE 13 24 7 13 - - -
01/08:30am - - - - - NNE 13 22 7 12 - - -
01/08:00am - - - - - NNE 11 22 6 12 - - -
01/07:30am - - - - - ENE 9 24 5 13 - - -
01/07:00am - - - - - NE 13 22 7 12 - - -
01/06:30am - - - - - NNE 13 22 7 12 - - -
01/06:00am - - - - - NE 13 20 7 11 - - -
01/05:30am - - - - - NNE 11 17 6 9 - - -
01/05:00am - - - - - NNE 7 15 4 8 - - -
01/04:30am - - - - - NE 11 15 6 8 - - -
01/04:00am - - - - - NE 11 19 6 10 - - -
01/03:30am - - - - - NNE 11 17 6 9 - - -
01/03:00am - - - - - NNE 9 13 5 7 - - -
01/02:30am - - - - - NNE 11 19 6 10 - - -
01/02:00am - - - - - NNE 13 22 7 12 - - -
01/01:30am - - - - - NNE 11 20 6 11 - - -
01/01:00am - - - - - NNE 19 28 10 15 - - -
01/12:30am - - - - - NNE 15 22 8 12 - - -
01/12:00am - - - - - NNE 13 20 7 11 - - -
 
Date/Time
EST
Temp
°C
App
Temp
°C
Dew
Point
Rel
Hum
%
Delta-T
°C
Wind Press
QNH
hPa
Press
MSL
hPa
Rain
since 9 am
mm
Dir
 
Spd
km/h
Gust
km/h
Spd
kts
Gust
kts
30/11:30pm - - - - - NE 13 26 7 14 - - -
30/11:00pm - - - - - E 17 33 9 18 - - -
30/10:30pm - - - - - ENE 19 37 10 20 - - -
30/10:00pm - - - - - E 26 43 14 23 - - -
30/09:30pm - - - - - E 17 32 9 17 - - -
30/09:00pm - - - - - ENE 20 28 11 15 - - -
30/08:30pm - - - - - ENE 22 32 12 17 - - -
30/08:00pm - - - - - ENE 26 35 14 19 - - -
30/07:30pm - - - - - E 24 30 13 16 - - -
30/07:00pm - - - - - ENE 19 28 10 15 - - -
30/06:30pm - - - - - ENE 7 13 4 7 - - -
30/06:00pm - - - - - NE 2 7 1 4 - - -
30/05:30pm - - - - - NE 7 9 4 5 - - -
30/05:00pm - - - - - NE 7 13 4 7 - - -
30/04:30pm - - - - - ENE 9 11 5 6 - - -
30/04:00pm - - - - - ENE 9 13 5 7 - - -
30/03:30pm - - - - - ENE 11 15 6 8 - - -
30/03:00pm - - - - - ENE 15 19 8 10 - - -
30/02:30pm - - - - - E 17 20 9 11 - - -
30/02:00pm - - - - - E 19 24 10 13 - - -
30/01:30pm - - - - - E 17 20 9 11 - - -
30/01:00pm - - - - - E 17 20 9 11 - - -
30/12:30pm - - - - - E 17 22 9 12 - - -
30/12:00pm - - - - - ENE 17 22 9 12 - - -
30/11:30am - - - - - ENE 17 22 9 12 - - -
30/11:00am - - - - - ENE 17 24 9 13 - - -
30/10:30am - - - - - ENE 19 24 10 13 - - -
30/10:00am - - - - - E 20 26 11 14 - - -
30/09:30am - - - - - E 20 26 11 14 - - -
30/09:00am - - - - - E 19 24 10 13 - - -
30/08:30am - - - - - E 20 24 11 13 - - -
30/08:00am - - - - - ESE 20 24 11 13 - - -
30/07:30am - - - - - E 17 20 9 11 - - -
30/07:00am - - - - - E 13 19 7 10 - - -
30/06:30am - - - - - ENE 11 15 6 8 - - -
30/06:00am - - - - - E 13 17 7 9 - - -
30/05:30am - - - - - E 15 20 8 11 - - -
30/05:00am - - - - - ESE 13 19 7 10 - - -
30/04:30am - - - - - ESE 13 17 7 9 - - -
30/04:00am - - - - - E 13 19 7 10 - - -
30/03:30am - - - - - ESE 13 20 7 11 - - -
30/03:00am - - - - - ESE 15 20 8 11 - - -
30/02:30am - - - - - ESE 13 28 7 15 - - -
30/02:00am - - - - - SE 11 15 6 8 - - -
30/01:30am - - - - - E 6 9 3 5 - - -
30/01:00am - - - - - SE 9 13 5 7 - - -
30/12:30am - - - - - SE 11 17 6 9 - - -
30/12:00am - - - - - ESE 17 22 9 12 - - -
 
Date/Time
EST
Temp
°C
App
Temp
°C
Dew
Point
Rel
Hum
%
Delta-T
°C
Wind Press
QNH
hPa
Press
MSL
hPa
Rain
since 9 am
mm
Dir
 
Spd
km/h
Gust
km/h
Spd
kts
Gust
kts
29/11:30pm - - - - - SE 15 20 8 11 - - -
29/11:00pm - - - - - ESE 15 24 8 13 - - -
29/10:30pm - - - - - ESE 17 26 9 14 - - -
29/10:00pm - - - - - ESE 19 28 10 15 - - -
29/09:30pm - - - - - ESE 19 24 10 13 - - -
29/09:00pm - - - - - ESE 19 26 10 14 - - -
29/08:30pm - - - - - ESE 17 24 9 13 - - -
29/08:00pm - - - - - ESE 17 20 9 11 - - -
29/07:30pm - - - - - ESE 17 22 9 12 - - -
29/07:00pm - - - - - ESE 17 22 9 12 - - -
29/06:30pm - - - - - ESE 15 20 8 11 - - -
29/06:00pm - - - - - SE 15 20 8 11 - - -
29/05:30pm - - - - - ESE 13 19 7 10 - - -
29/05:00pm - - - - - ESE 9 15 5 8 - - -
29/04:30pm - - - - - SE 11 17 6 9 - - -
29/04:00pm - - - - - ESE 9 13 5 7 - - -
29/03:30pm - - - - - ESE 11 17 6 9 - - -
29/03:00pm - - - - - E 13 17 7 9 - - -
29/02:30pm - - - - - ENE 13 17 7 9 - - -
29/02:00pm - - - - - ENE 13 17 7 9 - - -
29/01:30pm - - - - - E 19 24 10 13 - - -
29/01:00pm - - - - - E 17 28 9 15 - - -
29/12:30pm - - - - - SSE 2 7 1 4 - - -
29/12:00pm - - - - - E 6 9 3 5 - - -
29/11:30am - - - - - E 9 15 5 8 - - -
29/11:00am - - - - - ENE 9 13 5 7 - - -

Other Formats:

Comma delimited format used in spreadsheet applications
http://www.bom.gov.au/fwo/IDN60801/IDN60801.95995.axf

JavaScript Object Notation format (JSON) in row-major order
http://www.bom.gov.au/fwo/IDN60801/IDN60801.95995.json